sensor_id;sensor_type;location;lat;lon;timestamp;temperature;humidity
24035;DHT22;12242;50.952;4.678;2023-01-23T00:01:30;5.30;99.90
24035;DHT22;12242;50.952;4.678;2023-01-23T00:03:58;5.40;99.90
24035;DHT22;12242;50.952;4.678;2023-01-23T00:06:28;5.30;99.90
24035;DHT22;12242;50.952;4.678;2023-01-23T00:09:00;5.20;99.90
24035;DHT22;12242;50.952;4.678;2023-01-23T00:11:31;5.20;99.90
24035;DHT22;12242;50.952;4.678;2023-01-23T00:14:02;5.10;99.90
24035;DHT22;12242;50.952;4.678;2023-01-23T00:16:32;5.00;99.90
24035;DHT22;12242;50.952;4.678;2023-01-23T00:19:02;5.00;99.90
24035;DHT22;12242;50.952;4.678;2023-01-23T00:21:29;5.10;99.90
24035;DHT22;12242;50.952;4.678;2023-01-23T00:23:58;5.20;99.90
24035;DHT22;12242;50.952;4.678;2023-01-23T00:26:28;5.10;99.90
24035;DHT22;12242;50.952;4.678;2023-01-23T00:28:56;5.10;99.90
24035;DHT22;12242;50.952;4.678;2023-01-23T00:31:27;5.10;99.90
24035;DHT22;12242;50.952;4.678;2023-01-23T00:33:59;4.90;99.90
24035;DHT22;12242;50.952;4.678;2023-01-23T00:36:29;4.90;99.90
24035;DHT22;12242;50.952;4.678;2023-01-23T00:38:56;5.00;99.90
24035;DHT22;12242;50.952;4.678;2023-01-23T00:41:25;5.00;99.90
24035;DHT22;12242;50.952;4.678;2023-01-23T00:43:54;5.00;99.90
24035;DHT22;12242;50.952;4.678;2023-01-23T00:46:26;5.00;99.90
24035;DHT22;12242;50.952;4.678;2023-01-23T00:48:54;5.00;99.90
24035;DHT22;12242;50.952;4.678;2023-01-23T00:51:21;4.90;99.90
24035;DHT22;12242;50.952;4.678;2023-01-23T00:53:48;4.80;99.90
24035;DHT22;12242;50.952;4.678;2023-01-23T00:56:16;4.70;99.90
24035;DHT22;12242;50.952;4.678;2023-01-23T00:58:43;4.70;99.90
24035;DHT22;12242;50.952;4.678;2023-01-23T01:01:12;4.80;99.90
24035;DHT22;12242;50.952;4.678;2023-01-23T01:03:43;4.80;99.90
24035;DHT22;12242;50.952;4.678;2023-01-23T01:06:13;4.90;99.90
24035;DHT22;12242;50.952;4.678;2023-01-23T01:08:40;4.90;99.90
24035;DHT22;12242;50.952;4.678;2023-01-23T01:11:07;5.00;99.90
24035;DHT22;12242;50.952;4.678;2023-01-23T01:13:35;5.10;99.90
24035;DHT22;12242;50.952;4.678;2023-01-23T01:16:05;5.00;99.90
24035;DHT22;12242;50.952;4.678;2023-01-23T01:18:35;4.90;99.90
24035;DHT22;12242;50.952;4.678;2023-01-23T01:21:07;4.80;99.90
24035;DHT22;12242;50.952;4.678;2023-01-23T01:23:38;4.70;99.90
24035;DHT22;12242;50.952;4.678;2023-01-23T01:26:06;4.80;99.90
24035;DHT22;12242;50.952;4.678;2023-01-23T01:28:37;4.50;99.90
24035;DHT22;12242;50.952;4.678;2023-01-23T01:31:10;4.40;99.90
24035;DHT22;12242;50.952;4.678;2023-01-23T01:33:39;4.20;99.90
24035;DHT22;12242;50.952;4.678;2023-01-23T01:36:14;4.30;99.90
24035;DHT22;12242;50.952;4.678;2023-01-23T01:38:42;4.20;99.90
24035;DHT22;12242;50.952;4.678;2023-01-23T01:41:10;4.10;99.90
24035;DHT22;12242;50.952;4.678;2023-01-23T01:43:38;3.90;99.90
24035;DHT22;12242;50.952;4.678;2023-01-23T01:46:19;3.90;99.90
24035;DHT22;12242;50.952;4.678;2023-01-23T01:57:05;3.60;99.90
24035;DHT22;12242;50.952;4.678;2023-01-23T01:59:44;3.60;99.90
24035;DHT22;12242;50.952;4.678;2023-01-23T02:02:16;3.60;99.90
24035;DHT22;12242;50.952;4.678;2023-01-23T02:04:51;3.50;99.90
24035;DHT22;12242;50.952;4.678;2023-01-23T02:08:15;3.40;99.90
24035;DHT22;12242;50.952;4.678;2023-01-23T02:10:15;3.30;99.90
24035;DHT22;12242;50.952;4.678;2023-01-23T02:12:47;3.30;99.90
24035;DHT22;12242;50.952;4.678;2023-01-23T02:15:19;3.40;99.90
24035;DHT22;12242;50.952;4.678;2023-01-23T02:17:53;3.40;99.90
24035;DHT22;12242;50.952;4.678;2023-01-23T02:20:26;3.30;99.90
24035;DHT22;12242;50.952;4.678;2023-01-23T02:28:19;3.40;99.90
24035;DHT22;12242;50.952;4.678;2023-01-23T02:30:47;3.20;99.90
24035;DHT22;12242;50.952;4.678;2023-01-23T02:35:47;3.30;99.90
24035;DHT22;12242;50.952;4.678;2023-01-23T02:38:14;3.30;99.90
24035;DHT22;12242;50.952;4.678;2023-01-23T02:40:46;3.40;99.90
24035;DHT22;12242;50.952;4.678;2023-01-23T02:43:15;3.30;99.90
24035;DHT22;12242;50.952;4.678;2023-01-23T02:45:45;3.20;99.90
24035;DHT22;12242;50.952;4.678;2023-01-23T02:48:15;3.30;99.90
24035;DHT22;12242;50.952;4.678;2023-01-23T02:50:47;3.40;99.90
24035;DHT22;12242;50.952;4.678;2023-01-23T02:53:14;3.40;99.90
24035;DHT22;12242;50.952;4.678;2023-01-23T02:55:42;3.50;99.90
24035;DHT22;12242;50.952;4.678;2023-01-23T02:58:12;3.50;99.90
24035;DHT22;12242;50.952;4.678;2023-01-23T03:00:58;3.50;99.90
24035;DHT22;12242;50.952;4.678;2023-01-23T03:03:27;3.60;99.90
24035;DHT22;12242;50.952;4.678;2023-01-23T03:05:56;3.70;99.90
24035;DHT22;12242;50.952;4.678;2023-01-23T03:08:27;3.70;99.90
24035;DHT22;12242;50.952;4.678;2023-01-23T03:11:03;3.70;99.90
24035;DHT22;12242;50.952;4.678;2023-01-23T03:13:30;3.60;99.90
24035;DHT22;12242;50.952;4.678;2023-01-23T03:15:58;3.70;99.90
24035;DHT22;12242;50.952;4.678;2023-01-23T03:18:26;3.70;99.90
24035;DHT22;12242;50.952;4.678;2023-01-23T03:20:53;3.70;99.90
24035;DHT22;12242;50.952;4.678;2023-01-23T03:23:20;3.70;99.90
24035;DHT22;12242;50.952;4.678;2023-01-23T03:25:48;3.70;99.90
24035;DHT22;12242;50.952;4.678;2023-01-23T03:28:15;3.70;99.90
24035;DHT22;12242;50.952;4.678;2023-01-23T03:31:03;3.60;99.90
24035;DHT22;12242;50.952;4.678;2023-01-23T03:33:30;3.80;99.90
24035;DHT22;12242;50.952;4.678;2023-01-23T03:35:58;3.70;99.90
24035;DHT22;12242;50.952;4.678;2023-01-23T03:38:25;3.70;99.90
24035;DHT22;12242;50.952;4.678;2023-01-23T03:40:52;3.70;99.90
24035;DHT22;12242;50.952;4.678;2023-01-23T03:43:38;3.80;99.90
24035;DHT22;12242;50.952;4.678;2023-01-23T03:46:08;3.70;99.90
24035;DHT22;12242;50.952;4.678;2023-01-23T03:48:35;3.80;99.90
24035;DHT22;12242;50.952;4.678;2023-01-23T03:51:03;3.70;99.90
24035;DHT22;12242;50.952;4.678;2023-01-23T03:53:33;3.80;99.90
24035;DHT22;12242;50.952;4.678;2023-01-23T03:56:00;3.70;99.90
24035;DHT22;12242;50.952;4.678;2023-01-23T03:58:28;3.70;99.90
24035;DHT22;12242;50.952;4.678;2023-01-23T04:00:58;3.60;99.90
24035;DHT22;12242;50.952;4.678;2023-01-23T04:03:29;3.50;99.90
24035;DHT22;12242;50.952;4.678;2023-01-23T04:06:01;3.50;99.90
24035;DHT22;12242;50.952;4.678;2023-01-23T04:08:28;3.60;99.90
24035;DHT22;12242;50.952;4.678;2023-01-23T04:11:08;3.40;99.90
24035;DHT22;12242;50.952;4.678;2023-01-23T04:13:36;3.10;99.90
24035;DHT22;12242;50.952;4.678;2023-01-23T04:16:04;3.10;99.90
24035;DHT22;12242;50.952;4.678;2023-01-23T04:18:33;3.10;99.90
24035;DHT22;12242;50.952;4.678;2023-01-23T04:21:00;3.10;99.90
24035;DHT22;12242;50.952;4.678;2023-01-23T04:23:27;3.30;99.90
24035;DHT22;12242;50.952;4.678;2023-01-23T04:25:55;3.20;99.90
24035;DHT22;12242;50.952;4.678;2023-01-23T04:28:27;3.00;99.90
24035;DHT22;12242;50.952;4.678;2023-01-23T04:30:56;3.10;99.90
24035;DHT22;12242;50.952;4.678;2023-01-23T04:33:27;3.20;99.90
24035;DHT22;12242;50.952;4.678;2023-01-23T04:36:03;3.30;99.90
24035;DHT22;12242;50.952;4.678;2023-01-23T04:38:31;3.30;99.90
24035;DHT22;12242;50.952;4.678;2023-01-23T04:41:01;3.40;99.90
24035;DHT22;12242;50.952;4.678;2023-01-23T04:43:33;3.40;99.90
24035;DHT22;12242;50.952;4.678;2023-01-23T04:46:01;3.50;99.90
24035;DHT22;12242;50.952;4.678;2023-01-23T04:48:31;3.50;99.90
24035;DHT22;12242;50.952;4.678;2023-01-23T04:51:01;3.60;99.90
24035;DHT22;12242;50.952;4.678;2023-01-23T04:53:28;3.70;99.90
24035;DHT22;12242;50.952;4.678;2023-01-23T04:55:56;3.90;99.90
24035;DHT22;12242;50.952;4.678;2023-01-23T04:58:23;3.90;99.90
24035;DHT22;12242;50.952;4.678;2023-01-23T05:00:50;3.90;99.90
24035;DHT22;12242;50.952;4.678;2023-01-23T05:03:20;4.10;99.90
24035;DHT22;12242;50.952;4.678;2023-01-23T05:05:52;4.00;99.90
24035;DHT22;12242;50.952;4.678;2023-01-23T05:08:22;4.00;99.90
24035;DHT22;12242;50.952;4.678;2023-01-23T05:10:49;4.00;99.90
24035;DHT22;12242;50.952;4.678;2023-01-23T05:13:19;3.90;99.90
24035;DHT22;12242;50.952;4.678;2023-01-23T05:15:46;3.80;99.90
24035;DHT22;12242;50.952;4.678;2023-01-23T05:18:16;3.70;99.90
24035;DHT22;12242;50.952;4.678;2023-01-23T05:20:45;3.60;99.90
24035;DHT22;12242;50.952;4.678;2023-01-23T05:23:13;3.60;99.90
24035;DHT22;12242;50.952;4.678;2023-01-23T05:25:40;3.50;99.90
24035;DHT22;12242;50.952;4.678;2023-01-23T05:28:07;3.40;99.90
24035;DHT22;12242;50.952;4.678;2023-01-23T05:30:40;3.50;99.90
24035;DHT22;12242;50.952;4.678;2023-01-23T05:33:09;3.50;99.90
24035;DHT22;12242;50.952;4.678;2023-01-23T05:35:37;3.60;99.90
24035;DHT22;12242;50.952;4.678;2023-01-23T05:38:05;3.70;99.90
24035;DHT22;12242;50.952;4.678;2023-01-23T05:40:34;3.70;99.90
24035;DHT22;12242;50.952;4.678;2023-01-23T05:43:04;3.80;99.90
24035;DHT22;12242;50.952;4.678;2023-01-23T05:45:32;3.80;99.90
24035;DHT22;12242;50.952;4.678;2023-01-23T05:48:00;3.90;99.90
24035;DHT22;12242;50.952;4.678;2023-01-23T05:50:30;3.80;99.90
24035;DHT22;12242;50.952;4.678;2023-01-23T05:53:00;3.90;99.90
24035;DHT22;12242;50.952;4.678;2023-01-23T05:55:27;3.90;99.90
24035;DHT22;12242;50.952;4.678;2023-01-23T05:57:57;3.80;99.90
24035;DHT22;12242;50.952;4.678;2023-01-23T06:00:27;3.90;99.90
24035;DHT22;12242;50.952;4.678;2023-01-23T06:02:56;3.70;99.90
24035;DHT22;12242;50.952;4.678;2023-01-23T06:05:26;3.90;99.90
24035;DHT22;12242;50.952;4.678;2023-01-23T06:07:53;3.70;99.90
24035;DHT22;12242;50.952;4.678;2023-01-23T06:10:21;3.50;99.90
24035;DHT22;12242;50.952;4.678;2023-01-23T06:12:51;3.60;99.90
24035;DHT22;12242;50.952;4.678;2023-01-23T06:15:20;3.70;99.90
24035;DHT22;12242;50.952;4.678;2023-01-23T06:17:48;3.70;99.90
24035;DHT22;12242;50.952;4.678;2023-01-23T06:20:15;3.80;99.90
24035;DHT22;12242;50.952;4.678;2023-01-23T06:22:43;3.80;99.90
24035;DHT22;12242;50.952;4.678;2023-01-23T06:25:12;3.80;99.90
24035;DHT22;12242;50.952;4.678;2023-01-23T06:27:44;3.80;99.90
24035;DHT22;12242;50.952;4.678;2023-01-23T06:30:16;3.80;99.90
24035;DHT22;12242;50.952;4.678;2023-01-23T06:32:43;3.90;99.90
24035;DHT22;12242;50.952;4.678;2023-01-23T06:35:11;4.00;99.90
24035;DHT22;12242;50.952;4.678;2023-01-23T06:37:40;4.10;99.90
24035;DHT22;12242;50.952;4.678;2023-01-23T06:40:08;4.20;99.90
24035;DHT22;12242;50.952;4.678;2023-01-23T06:42:40;4.10;99.90
24035;DHT22;12242;50.952;4.678;2023-01-23T06:45:09;4.10;99.90
24035;DHT22;12242;50.952;4.678;2023-01-23T06:47:37;4.10;99.90
24035;DHT22;12242;50.952;4.678;2023-01-23T06:50:04;3.90;99.90
24035;DHT22;12242;50.952;4.678;2023-01-23T06:52:31;4.00;99.90
24035;DHT22;12242;50.952;4.678;2023-01-23T06:55:01;4.00;99.90
24035;DHT22;12242;50.952;4.678;2023-01-23T06:57:29;4.00;99.90
24035;DHT22;12242;50.952;4.678;2023-01-23T06:59:58;4.00;99.90
24035;DHT22;12242;50.952;4.678;2023-01-23T07:02:26;4.00;99.90
24035;DHT22;12242;50.952;4.678;2023-01-23T07:04:53;3.90;99.90
24035;DHT22;12242;50.952;4.678;2023-01-23T07:07:22;3.90;99.90
24035;DHT22;12242;50.952;4.678;2023-01-23T07:09:50;3.80;99.90
24035;DHT22;12242;50.952;4.678;2023-01-23T07:12:17;3.70;99.90
24035;DHT22;12242;50.952;4.678;2023-01-23T07:14:44;3.60;99.90
24035;DHT22;12242;50.952;4.678;2023-01-23T07:17:12;3.50;99.90
24035;DHT22;12242;50.952;4.678;2023-01-23T07:19:39;3.50;99.90
24035;DHT22;12242;50.952;4.678;2023-01-23T07:22:07;3.60;99.90
24035;DHT22;12242;50.952;4.678;2023-01-23T07:24:37;3.40;99.90
24035;DHT22;12242;50.952;4.678;2023-01-23T07:27:04;3.30;99.90
24035;DHT22;12242;50.952;4.678;2023-01-23T07:29:31;3.40;99.90
24035;DHT22;12242;50.952;4.678;2023-01-23T07:31:59;3.30;99.90
24035;DHT22;12242;50.952;4.678;2023-01-23T07:34:30;3.40;99.90
24035;DHT22;12242;50.952;4.678;2023-01-23T07:36:58;3.40;99.90
24035;DHT22;12242;50.952;4.678;2023-01-23T07:39:28;3.40;99.90
24035;DHT22;12242;50.952;4.678;2023-01-23T07:41:55;3.40;99.90
24035;DHT22;12242;50.952;4.678;2023-01-23T07:44:22;3.50;99.90
24035;DHT22;12242;50.952;4.678;2023-01-23T07:46:49;3.40;99.90
24035;DHT22;12242;50.952;4.678;2023-01-23T07:49:18;3.40;99.90
24035;DHT22;12242;50.952;4.678;2023-01-23T07:51:45;3.40;99.90
24035;DHT22;12242;50.952;4.678;2023-01-23T07:54:13;3.50;99.90
24035;DHT22;12242;50.952;4.678;2023-01-23T07:56:40;3.50;99.90
24035;DHT22;12242;50.952;4.678;2023-01-23T07:59:07;3.50;99.90
24035;DHT22;12242;50.952;4.678;2023-01-23T08:01:39;3.50;99.90
24035;DHT22;12242;50.952;4.678;2023-01-23T08:04:07;3.70;99.90
24035;DHT22;12242;50.952;4.678;2023-01-23T08:06:34;3.80;99.90
24035;DHT22;12242;50.952;4.678;2023-01-23T08:09:02;3.70;99.90
24035;DHT22;12242;50.952;4.678;2023-01-23T08:11:32;3.80;99.90
24035;DHT22;12242;50.952;4.678;2023-01-23T08:14:00;3.80;99.90
24035;DHT22;12242;50.952;4.678;2023-01-23T08:16:28;3.90;99.90
24035;DHT22;12242;50.952;4.678;2023-01-23T08:18:55;3.80;99.90
24035;DHT22;12242;50.952;4.678;2023-01-23T08:21:22;3.80;99.90
24035;DHT22;12242;50.952;4.678;2023-01-23T08:23:52;3.90;99.90
24035;DHT22;12242;50.952;4.678;2023-01-23T08:26:19;3.80;99.90
24035;DHT22;12242;50.952;4.678;2023-01-23T08:28:49;3.90;99.90
24035;DHT22;12242;50.952;4.678;2023-01-23T08:31:16;3.90;99.90
24035;DHT22;12242;50.952;4.678;2023-01-23T08:33:43;3.90;99.90
24035;DHT22;12242;50.952;4.678;2023-01-23T08:36:12;3.70;99.90
24035;DHT22;12242;50.952;4.678;2023-01-23T08:38:41;3.80;99.90
24035;DHT22;12242;50.952;4.678;2023-01-23T08:41:11;3.70;99.90
24035;DHT22;12242;50.952;4.678;2023-01-23T08:43:41;3.80;99.90
24035;DHT22;12242;50.952;4.678;2023-01-23T08:46:09;3.80;99.90
24035;DHT22;12242;50.952;4.678;2023-01-23T08:48:37;3.80;99.90
24035;DHT22;12242;50.952;4.678;2023-01-23T08:51:09;3.70;99.90
24035;DHT22;12242;50.952;4.678;2023-01-23T08:53:37;3.70;99.90
24035;DHT22;12242;50.952;4.678;2023-01-23T08:56:07;3.70;99.90
24035;DHT22;12242;50.952;4.678;2023-01-23T08:58:37;3.80;99.90
24035;DHT22;12242;50.952;4.678;2023-01-23T09:01:13;3.80;99.90
24035;DHT22;12242;50.952;4.678;2023-01-23T09:03:41;3.90;99.90
24035;DHT22;12242;50.952;4.678;2023-01-23T09:06:12;3.90;99.90
24035;DHT22;12242;50.952;4.678;2023-01-23T09:08:42;4.00;99.90
24035;DHT22;12242;50.952;4.678;2023-01-23T09:11:12;4.00;99.90
24035;DHT22;12242;50.952;4.678;2023-01-23T09:13:40;4.20;99.90
24035;DHT22;12242;50.952;4.678;2023-01-23T09:16:07;4.40;99.90
24035;DHT22;12242;50.952;4.678;2023-01-23T09:18:39;4.30;99.90
24035;DHT22;12242;50.952;4.678;2023-01-23T09:21:11;4.20;99.90
24035;DHT22;12242;50.952;4.678;2023-01-23T09:23:39;4.10;99.90
24035;DHT22;12242;50.952;4.678;2023-01-23T09:26:08;4.00;99.90
24035;DHT22;12242;50.952;4.678;2023-01-23T09:28:37;3.90;99.90
24035;DHT22;12242;50.952;4.678;2023-01-23T09:31:10;4.10;99.90
24035;DHT22;12242;50.952;4.678;2023-01-23T09:33:38;4.20;99.90
24035;DHT22;12242;50.952;4.678;2023-01-23T09:36:07;4.30;99.90
24035;DHT22;12242;50.952;4.678;2023-01-23T09:38:35;4.40;99.90
24035;DHT22;12242;50.952;4.678;2023-01-23T09:41:25;4.50;99.90
24035;DHT22;12242;50.952;4.678;2023-01-23T09:44:01;4.50;99.90
24035;DHT22;12242;50.952;4.678;2023-01-23T09:46:56;4.50;99.90
24035;DHT22;12242;50.952;4.678;2023-01-23T09:49:51;4.40;99.90
24035;DHT22;12242;50.952;4.678;2023-01-23T09:52:26;4.50;99.90
24035;DHT22;12242;50.952;4.678;2023-01-23T09:57:33;4.60;99.90
24035;DHT22;12242;50.952;4.678;2023-01-23T10:00:21;4.60;99.90
24035;DHT22;12242;50.952;4.678;2023-01-23T10:02:50;4.60;99.90
24035;DHT22;12242;50.952;4.678;2023-01-23T10:27:45;4.70;99.90
24035;DHT22;12242;50.952;4.678;2023-01-23T10:35:52;4.50;99.90
24035;DHT22;12242;50.952;4.678;2023-01-23T10:39:01;4.70;99.90
24035;DHT22;12242;50.952;4.678;2023-01-23T10:41:32;4.70;99.90
24035;DHT22;12242;50.952;4.678;2023-01-23T10:44:00;4.70;99.90
24035;DHT22;12242;50.952;4.678;2023-01-23T10:46:33;4.60;99.90
24035;DHT22;12242;50.952;4.678;2023-01-23T10:49:04;4.50;99.90
24035;DHT22;12242;50.952;4.678;2023-01-23T10:51:47;4.50;99.90
24035;DHT22;12242;50.952;4.678;2023-01-23T10:54:18;4.60;99.90
24035;DHT22;12242;50.952;4.678;2023-01-23T10:57:52;4.40;99.90
24035;DHT22;12242;50.952;4.678;2023-01-23T11:00:06;4.30;99.90
24035;DHT22;12242;50.952;4.678;2023-01-23T11:02:35;4.40;99.90
24035;DHT22;12242;50.952;4.678;2023-01-23T11:05:34;4.40;99.90
24035;DHT22;12242;50.952;4.678;2023-01-23T11:08:35;4.50;99.90
24035;DHT22;12242;50.952;4.678;2023-01-23T11:13:46;4.60;99.90
24035;DHT22;12242;50.952;4.678;2023-01-23T11:16:24;4.70;99.90
24035;DHT22;12242;50.952;4.678;2023-01-23T11:19:14;4.60;99.90
24035;DHT22;12242;50.952;4.678;2023-01-23T11:21:56;4.70;99.90
24035;DHT22;12242;50.952;4.678;2023-01-23T11:27:22;4.80;99.90
24035;DHT22;12242;50.952;4.678;2023-01-23T11:30:21;4.90;99.90
24035;DHT22;12242;50.952;4.678;2023-01-23T11:33:04;5.00;99.90
24035;DHT22;12242;50.952;4.678;2023-01-23T11:36:17;4.90;99.90
24035;DHT22;12242;50.952;4.678;2023-01-23T11:39:08;4.90;99.90
24035;DHT22;12242;50.952;4.678;2023-01-23T11:41:44;4.90;99.90
24035;DHT22;12242;50.952;4.678;2023-01-23T11:44:16;5.00;99.90
24035;DHT22;12242;50.952;4.678;2023-01-23T11:53:14;4.80;99.90
24035;DHT22;12242;50.952;4.678;2023-01-23T11:58:50;4.80;99.90
24035;DHT22;12242;50.952;4.678;2023-01-23T12:01:29;4.80;99.90
24035;DHT22;12242;50.952;4.678;2023-01-23T12:09:23;5.00;99.90
24035;DHT22;12242;50.952;4.678;2023-01-23T12:15:43;5.10;99.90
24035;DHT22;12242;50.952;4.678;2023-01-23T12:26:11;5.10;99.90
24035;DHT22;12242;50.952;4.678;2023-01-23T12:40:14;5.10;99.90
24035;DHT22;12242;50.952;4.678;2023-01-23T12:42:53;5.00;99.90
24035;DHT22;12242;50.952;4.678;2023-01-23T12:45:26;5.10;99.90
24035;DHT22;12242;50.952;4.678;2023-01-23T12:48:12;5.10;99.90
24035;DHT22;12242;50.952;4.678;2023-01-23T12:50:59;5.10;99.90
24035;DHT22;12242;50.952;4.678;2023-01-23T12:53:37;5.20;99.90
24035;DHT22;12242;50.952;4.678;2023-01-23T12:58:35;5.10;99.90
24035;DHT22;12242;50.952;4.678;2023-01-23T13:03:45;5.00;99.90
24035;DHT22;12242;50.952;4.678;2023-01-23T13:09:02;5.00;99.90
24035;DHT22;12242;50.952;4.678;2023-01-23T13:14:50;5.00;99.90
24035;DHT22;12242;50.952;4.678;2023-01-23T13:17:46;4.90;99.90
24035;DHT22;12242;50.952;4.678;2023-01-23T13:20:18;4.90;99.90
24035;DHT22;12242;50.952;4.678;2023-01-23T13:23:24;5.00;99.90
24035;DHT22;12242;50.952;4.678;2023-01-23T13:28:49;5.10;99.90
24035;DHT22;12242;50.952;4.678;2023-01-23T13:31:42;5.20;99.90
24035;DHT22;12242;50.952;4.678;2023-01-23T13:36:50;5.20;99.90
24035;DHT22;12242;50.952;4.678;2023-01-23T13:39:29;5.20;99.90
24035;DHT22;12242;50.952;4.678;2023-01-23T13:48:21;5.00;99.90
24035;DHT22;12242;50.952;4.678;2023-01-23T13:51:25;5.00;99.90
24035;DHT22;12242;50.952;4.678;2023-01-23T13:54:17;5.00;99.90
24035;DHT22;12242;50.952;4.678;2023-01-23T13:57:19;5.00;99.90
24035;DHT22;12242;50.952;4.678;2023-01-23T14:00:03;5.10;99.90
24035;DHT22;12242;50.952;4.678;2023-01-23T14:03:02;4.90;99.90
24035;DHT22;12242;50.952;4.678;2023-01-23T14:06:09;5.00;99.90
24035;DHT22;12242;50.952;4.678;2023-01-23T14:08:54;5.10;99.90
24035;DHT22;12242;50.952;4.678;2023-01-23T14:11:37;5.00;99.90
24035;DHT22;12242;50.952;4.678;2023-01-23T14:14:18;4.90;99.90
24035;DHT22;12242;50.952;4.678;2023-01-23T14:17:20;4.80;99.90
24035;DHT22;12242;50.952;4.678;2023-01-23T14:20:05;4.70;99.90
24035;DHT22;12242;50.952;4.678;2023-01-23T14:22:53;4.70;99.90
24035;DHT22;12242;50.952;4.678;2023-01-23T14:25:23;4.70;99.90
24035;DHT22;12242;50.952;4.678;2023-01-23T14:28:02;4.70;99.90
24035;DHT22;12242;50.952;4.678;2023-01-23T14:30:29;4.70;99.90
24035;DHT22;12242;50.952;4.678;2023-01-23T14:32:57;4.60;99.90
24035;DHT22;12242;50.952;4.678;2023-01-23T14:35:29;4.70;99.90
24035;DHT22;12242;50.952;4.678;2023-01-23T14:38:01;4.70;99.90
24035;DHT22;12242;50.952;4.678;2023-01-23T14:40:31;4.80;99.90
24035;DHT22;12242;50.952;4.678;2023-01-23T14:43:21;4.70;99.90
24035;DHT22;12242;50.952;4.678;2023-01-23T14:46:04;4.80;99.90
24035;DHT22;12242;50.952;4.678;2023-01-23T14:48:37;4.80;99.90
24035;DHT22;12242;50.952;4.678;2023-01-23T14:51:27;4.70;99.90
24035;DHT22;12242;50.952;4.678;2023-01-23T14:54:02;4.70;99.90
24035;DHT22;12242;50.952;4.678;2023-01-23T14:56:38;4.70;99.90
24035;DHT22;12242;50.952;4.678;2023-01-23T14:59:08;4.80;99.90
24035;DHT22;12242;50.952;4.678;2023-01-23T15:01:40;4.80;99.90
24035;DHT22;12242;50.952;4.678;2023-01-23T15:04:20;4.80;99.90
24035;DHT22;12242;50.952;4.678;2023-01-23T15:06:52;4.90;99.90
24035;DHT22;12242;50.952;4.678;2023-01-23T15:11:51;5.10;99.90
24035;DHT22;12242;50.952;4.678;2023-01-23T15:14:25;5.00;99.90
24035;DHT22;12242;50.952;4.678;2023-01-23T15:17:01;4.90;99.90
24035;DHT22;12242;50.952;4.678;2023-01-23T15:19:35;4.70;99.90
24035;DHT22;12242;50.952;4.678;2023-01-23T15:22:20;4.70;99.90
24035;DHT22;12242;50.952;4.678;2023-01-23T15:24:51;4.60;99.90
24035;DHT22;12242;50.952;4.678;2023-01-23T15:33:25;4.60;99.90
24035;DHT22;12242;50.952;4.678;2023-01-23T15:36:28;4.60;99.90
24035;DHT22;12242;50.952;4.678;2023-01-23T15:38:58;4.50;99.90
24035;DHT22;12242;50.952;4.678;2023-01-23T15:44:27;4.40;99.90
24035;DHT22;12242;50.952;4.678;2023-01-23T15:46:55;4.40;99.90
24035;DHT22;12242;50.952;4.678;2023-01-23T15:49:28;4.20;99.90
24035;DHT22;12242;50.952;4.678;2023-01-23T15:52:02;4.10;99.90
24035;DHT22;12242;50.952;4.678;2023-01-23T15:54:39;4.10;99.90
24035;DHT22;12242;50.952;4.678;2023-01-23T15:57:11;4.10;99.90
24035;DHT22;12242;50.952;4.678;2023-01-23T15:59:43;4.00;99.90
24035;DHT22;12242;50.952;4.678;2023-01-23T16:02:19;4.10;99.90
24035;DHT22;12242;50.952;4.678;2023-01-23T16:04:56;4.00;99.90
24035;DHT22;12242;50.952;4.678;2023-01-23T16:07:29;4.00;99.90
24035;DHT22;12242;50.952;4.678;2023-01-23T16:10:20;4.00;99.90
24035;DHT22;12242;50.952;4.678;2023-01-23T16:12:49;4.00;99.90
24035;DHT22;12242;50.952;4.678;2023-01-23T16:15:24;4.10;99.90
24035;DHT22;12242;50.952;4.678;2023-01-23T16:17:58;4.20;99.90
24035;DHT22;12242;50.952;4.678;2023-01-23T16:23:03;4.40;99.90
24035;DHT22;12242;50.952;4.678;2023-01-23T16:25:44;4.40;99.90
24035;DHT22;12242;50.952;4.678;2023-01-23T16:28:23;4.40;99.90
24035;DHT22;12242;50.952;4.678;2023-01-23T16:30:52;4.30;99.90
24035;DHT22;12242;50.952;4.678;2023-01-23T16:33:20;4.30;99.90
24035;DHT22;12242;50.952;4.678;2023-01-23T16:35:50;4.10;99.90
24035;DHT22;12242;50.952;4.678;2023-01-23T16:38:23;4.10;99.90
24035;DHT22;12242;50.952;4.678;2023-01-23T16:40:51;4.10;99.90
24035;DHT22;12242;50.952;4.678;2023-01-23T16:43:22;4.10;99.90
24035;DHT22;12242;50.952;4.678;2023-01-23T16:45:50;4.00;99.90
24035;DHT22;12242;50.952;4.678;2023-01-23T16:48:22;4.00;99.90
24035;DHT22;12242;50.952;4.678;2023-01-23T16:51:24;4.00;99.90
24035;DHT22;12242;50.952;4.678;2023-01-23T16:53:57;4.10;99.90
24035;DHT22;12242;50.952;4.678;2023-01-23T16:56:39;4.10;99.90
24035;DHT22;12242;50.952;4.678;2023-01-23T16:59:15;4.00;99.90
24035;DHT22;12242;50.952;4.678;2023-01-23T17:01:47;4.10;99.90
24035;DHT22;12242;50.952;4.678;2023-01-23T17:04:19;4.00;99.90
24035;DHT22;12242;50.952;4.678;2023-01-23T17:06:50;4.00;99.90
24035;DHT22;12242;50.952;4.678;2023-01-23T17:09:17;4.00;99.90
24035;DHT22;12242;50.952;4.678;2023-01-23T17:11:51;4.00;99.90
24035;DHT22;12242;50.952;4.678;2023-01-23T17:14:29;4.10;99.90
24035;DHT22;12242;50.952;4.678;2023-01-23T17:17:03;4.10;99.90
24035;DHT22;12242;50.952;4.678;2023-01-23T17:19:36;4.00;99.90
24035;DHT22;12242;50.952;4.678;2023-01-23T17:22:09;4.00;99.90
24035;DHT22;12242;50.952;4.678;2023-01-23T17:24:39;4.00;99.90
24035;DHT22;12242;50.952;4.678;2023-01-23T17:27:09;4.10;99.90
24035;DHT22;12242;50.952;4.678;2023-01-23T17:29:40;4.10;99.90
24035;DHT22;12242;50.952;4.678;2023-01-23T17:32:22;4.10;99.90
24035;DHT22;12242;50.952;4.678;2023-01-23T17:34:52;4.00;99.90
24035;DHT22;12242;50.952;4.678;2023-01-23T17:37:21;4.10;99.90
24035;DHT22;12242;50.952;4.678;2023-01-23T17:39:48;4.00;99.90
24035;DHT22;12242;50.952;4.678;2023-01-23T17:42:19;4.00;99.90
24035;DHT22;12242;50.952;4.678;2023-01-23T17:44:48;4.00;99.90
24035;DHT22;12242;50.952;4.678;2023-01-23T17:47:16;4.00;99.90
24035;DHT22;12242;50.952;4.678;2023-01-23T17:49:49;4.00;99.90
24035;DHT22;12242;50.952;4.678;2023-01-23T17:52:23;4.10;99.90
24035;DHT22;12242;50.952;4.678;2023-01-23T17:54:52;4.10;99.90
24035;DHT22;12242;50.952;4.678;2023-01-23T17:57:22;4.20;99.90
24035;DHT22;12242;50.952;4.678;2023-01-23T17:59:49;4.10;99.90
24035;DHT22;12242;50.952;4.678;2023-01-23T18:02:23;4.10;99.90
24035;DHT22;12242;50.952;4.678;2023-01-23T18:04:51;4.00;99.90
24035;DHT22;12242;50.952;4.678;2023-01-23T18:07:19;4.00;99.90
24035;DHT22;12242;50.952;4.678;2023-01-23T18:09:48;4.00;99.90
24035;DHT22;12242;50.952;4.678;2023-01-23T18:12:28;4.00;99.90
24035;DHT22;12242;50.952;4.678;2023-01-23T18:15:55;4.00;99.90
24035;DHT22;12242;50.952;4.678;2023-01-23T18:20:32;4.00;99.90
24035;DHT22;12242;50.952;4.678;2023-01-23T18:23:00;4.00;99.90
24035;DHT22;12242;50.952;4.678;2023-01-23T18:25:30;4.00;99.90
24035;DHT22;12242;50.952;4.678;2023-01-23T18:28:02;4.00;99.90
24035;DHT22;12242;50.952;4.678;2023-01-23T18:36:15;4.10;99.90